Time;durP1;ratioP1;P1;durP2;ratioP2;P2;SDS_P1;SDS_P2;PMS_P1;PMS_P2;Temp;Humidity;BMP_temperature;BMP_pressure;BME280_temperature;BME280_humidity;BME280_pressure;Samples;Min_cycle;Max_cycle;Signal;HPM_P1;HPM_P2
2024/02/23 00:01:51;;;;;;;1.20;0.73;;;;;;;10.41;72.93;95872.97;5037237;28;20116;-75
2024/02/23 00:04:18;;;;;;;1.60;0.80;;;;;;;10.25;72.90;95885.13;5030448;28;20509;-75
2024/02/23 00:06:44;;;;;;;2.78;0.70;;;;;;;10.19;72.98;95859.44;5029987;28;20029;-76
2024/02/23 00:09:10;;;;;;;2.00;0.90;;;;;;;10.35;72.06;95868.00;5036907;28;20064;-76
2024/02/23 00:11:39;;;;;;;0.90;0.77;;;;;;;10.25;72.61;95865.50;5035417;28;20116;-75
2024/02/23 00:14:05;;;;;;;1.13;0.80;;;;;;;10.18;72.47;95881.22;5037203;28;20045;-75
2024/02/23 00:16:30;;;;;;;1.00;0.80;;;;;;;10.09;72.79;95910.69;5019988;28;20072;-75
2024/02/23 00:18:55;;;;;;;1.95;1.08;;;;;;;10.01;72.26;95918.66;5055846;28;20038;-75
2024/02/23 00:21:21;;;;;;;1.30;0.77;;;;;;;9.88;71.46;95922.09;5053375;28;20032;-75
2024/02/23 00:23:46;;;;;;;1.27;0.80;;;;;;;9.93;71.74;95935.44;5053425;28;20087;-75
2024/02/23 00:26:11;;;;;;;1.20;0.80;;;;;;;9.88;70.72;95954.34;5024851;28;20477;-75
2024/02/23 00:28:37;;;;;;;2.10;0.75;;;;;;;9.96;70.00;95924.13;5014653;28;20038;-75
2024/02/23 00:31:02;;;;;;;1.85;0.80;;;;;;;9.90;70.62;95919.91;5023738;28;20536;-76
2024/02/23 00:33:28;;;;;;;0.80;0.70;;;;;;;9.74;70.89;95936.31;5015071;28;20038;-76
2024/02/23 00:35:53;;;;;;;0.70;0.70;;;;;;;9.87;70.00;95958.16;5031755;28;20112;-76
2024/02/23 00:38:18;;;;;;;1.15;0.80;;;;;;;9.84;71.40;95964.09;5021463;28;20037;-75
2024/02/23 00:40:44;;;;;;;1.50;0.90;;;;;;;9.69;70.88;95968.63;5040101;28;20021;-77
2024/02/23 00:43:10;;;;;;;1.98;0.80;;;;;;;9.91;70.27;95972.59;5031121;28;20040;-74
2024/02/23 00:45:35;;;;;;;1.80;0.70;;;;;;;9.91;69.69;95997.59;5031382;28;20413;-75
2024/02/23 00:48:01;;;;;;;1.35;0.93;;;;;;;10.04;69.75;96004.91;5030889;28;20037;-75
2024/02/23 00:50:26;;;;;;;1.15;0.70;;;;;;;9.45;70.12;96000.16;5047923;28;20041;-74
2024/02/23 00:52:53;;;;;;;1.63;0.88;;;;;;;9.54;69.92;96025.31;5040701;28;20044;-74
2024/02/23 00:55:18;;;;;;;1.15;0.70;;;;;;;9.77;68.45;96033.56;5042425;28;20120;-74
2024/02/23 00:57:45;;;;;;;1.52;0.70;;;;;;;9.55;68.85;96037.63;5047364;28;20128;-75
2024/02/23 01:00:11;;;;;;;2.15;0.70;;;;;;;9.56;67.98;96033.88;5031115;28;20017;-74
2024/02/23 01:02:37;;;;;;;1.60;0.73;;;;;;;9.65;68.00;96037.50;5030997;28;20064;-77
2024/02/23 01:05:02;;;;;;;0.80;0.60;;;;;;;9.42;66.99;96016.06;5066279;28;20112;-76
2024/02/23 01:07:28;;;;;;;0.75;0.70;;;;;;;9.39;66.85;96044.31;5035465;28;20030;-76
2024/02/23 01:09:53;;;;;;;1.13;0.70;;;;;;;9.30;66.18;96056.00;5049475;28;20026;-76
2024/02/23 01:12:19;;;;;;;0.85;0.70;;;;;;;9.23;66.08;96013.38;5016081;28;20033;-76
2024/02/23 01:14:44;;;;;;;1.92;0.82;;;;;;;9.43;66.62;96058.75;5047222;28;20401;-77
2024/02/23 01:17:10;;;;;;;1.02;0.60;;;;;;;9.25;65.74;96032.69;5039078;28;20109;-76
2024/02/23 01:19:35;;;;;;;1.35;0.80;;;;;;;9.33;66.57;96050.84;5027247;28;20032;-77
2024/02/23 01:22:01;;;;;;;2.47;0.95;;;;;;;9.33;66.00;96058.91;5033278;28;20042;-76
2024/02/23 01:24:30;;;;;;;1.10;0.80;;;;;;;9.26;66.71;96065.72;5039046;28;20026;-77
2024/02/23 01:26:56;;;;;;;1.85;0.70;;;;;;;9.09;66.16;96066.19;5021937;28;20041;-77
2024/02/23 01:29:22;;;;;;;2.20;0.70;;;;;;;9.22;65.91;96089.66;5001127;28;20022;-77
2024/02/23 01:31:48;;;;;;;1.23;0.85;;;;;;;9.16;65.57;96085.44;5041571;28;20040;-77
2024/02/23 01:34:14;;;;;;;1.60;0.70;;;;;;;8.78;65.22;96075.66;5014506;28;20129;-77
2024/02/23 01:36:39;;;;;;;1.48;0.77;;;;;;;8.97;65.04;96104.19;5034211;28;20120;-77
2024/02/23 01:39:05;;;;;;;2.95;0.85;;;;;;;9.02;64.45;96095.25;5027034;28;20029;-77
2024/02/23 01:41:32;;;;;;;1.45;0.80;;;;;;;8.76;64.54;96088.56;5026648;28;20042;-77
2024/02/23 01:43:57;;;;;;;1.25;0.70;;;;;;;9.06;64.28;96098.97;5019045;28;20440;-75
2024/02/23 01:46:23;;;;;;;1.63;0.73;;;;;;;8.94;63.81;96079.78;5066113;28;20060;-75
2024/02/23 01:48:48;;;;;;;1.25;0.90;;;;;;;9.05;63.49;96102.75;5052787;28;20030;-74
2024/02/23 01:51:14;;;;;;;1.60;0.80;;;;;;;8.52;63.83;96075.13;5052237;28;20065;-74
2024/02/23 01:53:40;;;;;;;2.33;0.82;;;;;;;8.75;64.48;96113.81;5043958;28;20029;-74
2024/02/23 01:56:06;;;;;;;1.00;0.80;;;;;;;8.80;63.72;96095.75;5052760;28;20099;-76
2024/02/23 01:58:33;;;;;;;2.30;0.82;;;;;;;8.93;64.14;96099.66;5011612;28;20029;-76
2024/02/23 02:00:58;;;;;;;2.85;0.80;;;;;;;8.84;64.83;96106.75;5034925;28;20120;-77
2024/02/23 02:03:24;;;;;;;0.85;0.80;;;;;;;8.80;64.30;96100.31;5036400;28;20453;-76
2024/02/23 02:05:51;;;;;;;1.58;1.00;;;;;;;8.92;65.11;96103.41;5019938;28;20037;-75
2024/02/23 02:08:17;;;;;;;1.70;0.90;;;;;;;8.81;66.02;96091.19;5027876;28;20074;-76
2024/02/23 02:10:43;;;;;;;1.42;0.80;;;;;;;8.82;66.08;96120.44;5036899;28;20037;-77
2024/02/23 02:13:08;;;;;;;1.20;1.05;;;;;;;8.70;66.98;96121.91;5010617;28;20018;-76
2024/02/23 02:15:34;;;;;;;2.38;0.77;;;;;;;8.69;66.85;96123.78;5070687;28;20087;-77
2024/02/23 02:17:59;;;;;;;2.10;0.82;;;;;;;8.76;66.66;96115.41;5018689;28;20040;-77
2024/02/23 02:20:28;;;;;;;2.78;1.02;;;;;;;8.77;66.83;96119.69;5024062;28;20033;-77
2024/02/23 02:22:53;;;;;;;2.13;1.10;;;;;;;8.78;66.76;96123.97;5035021;28;20021;-75
2024/02/23 02:25:19;;;;;;;1.80;0.90;;;;;;;8.72;67.12;96117.06;5018656;28;20412;-76
2024/02/23 02:27:45;;;;;;;4.95;1.15;;;;;;;8.51;67.27;96131.75;5018319;28;20018;-76
2024/02/23 02:30:14;;;;;;;2.53;0.93;;;;;;;8.58;66.76;96130.34;5034586;28;20037;-75
2024/02/23 02:32:39;;;;;;;1.55;0.93;;;;;;;8.58;66.40;96151.81;5034668;28;20029;-77
2024/02/23 02:35:05;;;;;;;2.65;1.00;;;;;;;8.46;66.56;96139.81;5063850;28;20042;-77
2024/02/23 02:37:30;;;;;;;1.38;0.88;;;;;;;8.42;67.15;96157.56;5038495;28;20030;-77
2024/02/23 02:39:56;;;;;;;3.65;0.82;;;;;;;8.45;66.81;96141.69;5040187;28;20379;-77
2024/02/23 02:42:21;;;;;;;2.28;0.80;;;;;;;8.26;67.16;96130.84;5038157;28;20030;-77
2024/02/23 02:44:46;;;;;;;2.45;0.90;;;;;;;8.40;67.22;96165.91;5021549;28;20033;-77
2024/02/23 02:47:12;;;;;;;1.67;1.08;;;;;;;8.34;67.57;96178.53;5021542;28;20036;-77
2024/02/23 02:49:41;;;;;;;2.22;1.10;;;;;;;8.42;67.37;96174.47;5055704;28;20044;-77
2024/02/23 02:52:08;;;;;;;3.65;1.38;;;;;;;8.56;67.60;96180.00;5025706;28;20037;-77
2024/02/23 02:54:33;;;;;;;3.58;0.93;;;;;;;8.51;67.98;96193.44;5016593;28;20037;-77
2024/02/23 02:56:59;;;;;;;1.42;1.00;;;;;;;8.28;67.91;96168.91;5033091;28;20026;-77
2024/02/23 02:59:24;;;;;;;3.95;1.00;;;;;;;8.46;68.17;96180.06;5032710;28;20108;-77
2024/02/23 03:01:49;;;;;;;1.52;0.90;;;;;;;8.52;68.13;96176.28;5032955;28;20029;-76
2024/02/23 03:04:15;;;;;;;2.63;1.10;;;;;;;8.57;68.56;96203.03;5049518;28;20040;-77
2024/02/23 03:06:40;;;;;;;1.98;1.00;;;;;;;8.08;68.94;96130.69;5016386;28;20048;-77
2024/02/23 03:09:07;;;;;;;2.08;0.95;;;;;;;8.57;68.85;96208.41;5012746;28;20052;-77
2024/02/23 03:11:32;;;;;;;2.92;1.00;;;;;;;8.43;69.33;96205.56;5045494;28;20481;-77
2024/02/23 03:13:57;;;;;;;1.55;1.00;;;;;;;8.31;69.85;96195.19;5023504;28;20083;-77
2024/02/23 03:16:25;;;;;;;2.45;0.90;;;;;;;8.33;70.33;96214.47;5032617;28;20029;-76
2024/02/23 03:18:51;;;;;;;2.30;1.08;;;;;;;8.36;70.27;96213.13;5032421;28;20124;-77
2024/02/23 03:21:17;;;;;;;3.47;1.20;;;;;;;8.34;70.42;96226.00;5024336;28;20100;-76
2024/02/23 03:23:42;;;;;;;3.30;1.25;;;;;;;8.31;70.55;96219.31;5026100;28;20045;-75
2024/02/23 03:26:08;;;;;;;2.05;1.42;;;;;;;8.10;70.93;96222.34;5012931;28;20026;-77
2024/02/23 03:28:33;;;;;;;3.28;1.05;;;;;;;8.02;70.98;96202.31;5063324;28;20042;-76
2024/02/23 03:31:00;;;;;;;2.05;1.00;;;;;;;8.07;70.57;96230.97;5037553;28;20072;-76
2024/02/23 03:33:25;;;;;;;2.15;1.00;;;;;;;7.84;70.83;96231.63;5054848;28;20037;-76
2024/02/23 03:35:50;;;;;;;2.08;1.10;;;;;;;8.00;70.80;96231.28;5049542;28;20036;-76
2024/02/23 03:38:16;;;;;;;3.42;1.15;;;;;;;8.02;70.99;96245.22;5040134;28;20397;-76
2024/02/23 03:40:42;;;;;;;2.90;1.10;;;;;;;8.00;70.57;96260.75;5033815;28;20091;-76
2024/02/23 03:43:07;;;;;;;3.10;1.10;;;;;;;7.96;70.63;96234.78;5015555;28;20034;-76
2024/02/23 03:45:32;;;;;;;2.70;0.95;;;;;;;7.97;70.26;96237.19;5032094;28;20034;-76
2024/02/23 03:47:59;;;;;;;2.13;0.90;;;;;;;7.93;70.66;96246.06;5040048;28;20565;-75
2024/02/23 03:50:24;;;;;;;3.08;1.55;;;;;;;7.88;70.13;96249.56;5032001;28;20021;-75
2024/02/23 03:52:49;;;;;;;1.73;1.10;;;;;;;8.00;70.04;96258.09;5016496;28;20543;-75
2024/02/23 03:55:15;;;;;;;3.53;1.02;;;;;;;7.80;69.57;96242.06;5007365;28;20116;-75
2024/02/23 03:57:40;;;;;;;2.03;1.20;;;;;;;8.08;69.31;96264.72;5032657;28;20029;-75
2024/02/23 04:00:07;;;;;;;3.05;1.00;;;;;;;8.01;69.37;96264.22;5023156;28;20116;-75
2024/02/23 04:02:38;;;;;;;3.70;1.40;;;;;;;7.96;69.46;96238.25;5033211;28;20045;-76
2024/02/23 04:05:04;;;;;;;3.42;1.90;;;;;;;7.95;69.60;96250.06;5016691;28;20044;-78
2024/02/23 04:07:29;;;;;;;2.85;1.20;;;;;;;7.59;70.76;96193.16;5025906;28;20457;-76
2024/02/23 04:09:55;;;;;;;7.20;4.20;;;;;;;7.93;71.30;96262.13;5048348;28;20041;-76
2024/02/23 04:12:23;;;;;;;5.53;4.07;;;;;;;8.00;71.85;96263.44;5048125;28;20029;-76
2024/02/23 04:14:49;;;;;;;2.13;1.40;;;;;;;7.86;72.85;96265.13;5032669;28;20076;-76
2024/02/23 04:17:15;;;;;;;2.38;1.38;;;;;;;7.81;73.13;96273.16;5048149;28;20385;-76
2024/02/23 04:19:41;;;;;;;2.22;1.70;;;;;;;7.82;73.54;96264.03;5032317;28;20041;-76
2024/02/23 04:22:09;;;;;;;3.80;1.50;;;;;;;7.63;72.62;96253.13;5019008;28;20030;-76
2024/02/23 04:24:36;;;;;;;3.33;1.50;;;;;;;7.80;73.57;96263.50;5019489;28;20041;-75
2024/02/23 04:27:02;;;;;;;3.90;1.52;;;;;;;7.45;74.84;96255.59;5035857;28;20076;-75
2024/02/23 04:29:27;;;;;;;2.97;1.63;;;;;;;7.58;75.10;96257.72;5026819;28;20046;-75
2024/02/23 04:31:52;;;;;;;6.78;1.90;;;;;;;7.45;75.69;96250.22;5032366;28;20121;-75
2024/02/23 04:34:18;;;;;;;3.65;1.58;;;;;;;7.45;74.75;96268.97;5032373;28;20040;-75
2024/02/23 04:36:43;;;;;;;2.75;1.70;;;;;;;7.48;75.92;96287.19;5021749;28;20087;-75
2024/02/23 04:39:08;;;;;;;4.40;1.92;;;;;;;7.23;76.80;96289.91;5030949;28;20037;-75
2024/02/23 04:41:34;;;;;;;4.65;1.63;;;;;;;7.09;78.30;96299.56;5014502;28;20026;-75
2024/02/23 04:44:00;;;;;;;3.10;1.67;;;;;;;6.97;78.76;96307.88;5014469;28;20055;-75
2024/02/23 04:46:26;;;;;;;2.97;1.63;;;;;;;6.95;78.10;96294.72;5014611;28;20022;-75
2024/02/23 04:48:52;;;;;;;3.50;1.98;;;;;;;7.02;78.23;96288.31;5014512;28;20111;-78
2024/02/23 04:51:17;;;;;;;5.75;2.42;;;;;;;6.49;79.10;96215.56;5027640;28;20025;-75
2024/02/23 04:53:42;;;;;;;4.75;2.40;;;;;;;6.93;80.01;96307.56;5009554;28;20037;-76
2024/02/23 04:56:08;;;;;;;4.35;2.00;;;;;;;7.04;78.96;96296.88;5014451;28;20021;-75
2024/02/23 04:58:33;;;;;;;2.42;1.80;;;;;;;6.85;78.88;96277.88;5030643;28;20124;-75
2024/02/23 05:00:59;;;;;;;2.47;1.63;;;;;;;6.79;79.47;96295.81;5021673;28;20021;-75
2024/02/23 05:03:24;;;;;;;4.28;1.52;;;;;;;6.61;79.52;96299.00;5022619;28;20539;-75
2024/02/23 05:05:53;;;;;;;3.38;1.48;;;;;;;6.34;78.98;96310.97;5031046;28;20017;-75
2024/02/23 05:08:20;;;;;;;3.40;1.40;;;;;;;6.57;78.42;96353.28;5022430;28;20493;-76
2024/02/23 05:10:46;;;;;;;3.33;1.25;;;;;;;6.39;77.63;96332.38;5016068;28;20029;-75
2024/02/23 05:13:11;;;;;;;3.17;1.20;;;;;;;6.17;76.54;96297.84;5023761;28;20056;-75
2024/02/23 05:15:37;;;;;;;4.18;1.90;;;;;;;6.33;75.53;96323.53;5019810;28;20029;-75
2024/02/23 05:18:03;;;;;;;7.18;6.22;;;;;;;6.34;74.19;96330.50;5022561;28;20064;-75
2024/02/23 05:20:28;;;;;;;4.32;1.75;;;;;;;6.32;73.22;96342.53;5024141;28;20021;-76
2024/02/23 05:22:54;;;;;;;5.32;4.35;;;;;;;6.50;73.87;96313.44;5048412;28;20026;-75
2024/02/23 05:25:19;;;;;;;7.90;7.13;;;;;;;6.35;73.77;96317.94;5058079;28;20442;-77
2024/02/23 05:27:45;;;;;;;3.13;1.92;;;;;;;6.35;73.73;96300.00;5028384;28;20033;-77
2024/02/23 05:30:14;;;;;;;4.78;3.22;;;;;;;6.58;73.47;96339.63;5026394;28;20090;-77
2024/02/23 05:32:52;;;;;;;4.13;1.70;;;;;;;6.43;73.51;96341.47;5053626;28;20059;-77
2024/02/23 05:35:40;;;;;;;2.40;1.75;;;;;;;6.28;73.62;96347.56;5013288;28;20046;-76
2024/02/23 05:38:39;;;;;;;3.78;1.50;;;;;;;6.28;73.07;96356.41;5010889;28;20045;-75
2024/02/23 05:41:23;;;;;;;4.45;1.50;;;;;;;6.25;73.06;96348.13;5012579;28;20049;-75
2024/02/23 05:44:13;;;;;;;5.70;2.35;;;;;;;6.38;72.92;96357.50;5034703;28;20041;-75
2024/02/23 05:46:42;;;;;;;3.50;1.58;;;;;;;6.35;73.07;96350.81;5029944;28;20037;-75
2024/02/23 05:49:09;;;;;;;3.28;1.58;;;;;;;6.34;71.66;96343.88;5022618;28;20092;-76
2024/02/23 05:51:35;;;;;;;3.60;1.45;;;;;;;6.14;72.79;96325.06;5001572;28;20041;-74
2024/02/23 05:54:00;;;;;;;5.60;2.65;;;;;;;6.13;73.38;96321.63;5054080;28;20128;-75
2024/02/23 05:56:25;;;;;;;5.55;1.70;;;;;;;6.39;72.84;96362.59;5032228;28;20037;-75
2024/02/23 05:58:51;;;;;;;5.63;2.22;;;;;;;6.12;72.31;96324.53;5033604;28;20512;-75
2024/02/23 06:01:17;;;;;;;5.25;2.00;;;;;;;6.43;72.16;96338.81;5035273;28;20025;-76
2024/02/23 06:03:44;;;;;;;4.85;1.40;;;;;;;6.12;72.69;96305.84;5026443;28;20033;-76
2024/02/23 06:06:10;;;;;;;4.35;1.65;;;;;;;6.42;72.71;96343.34;5016353;28;20043;-75
2024/02/23 06:08:36;;;;;;;6.60;1.65;;;;;;;6.47;72.17;96340.69;5006865;28;20115;-77
2024/02/23 06:11:03;;;;;;;4.45;1.40;;;;;;;6.28;72.94;96331.53;5004291;28;20037;-77
2024/02/23 06:13:28;;;;;;;3.00;1.30;;;;;;;6.06;72.94;96322.94;5044476;28;20025;-77
2024/02/23 06:15:54;;;;;;;4.25;1.30;;;;;;;6.13;73.07;96335.00;5031142;28;20082;-76
2024/02/23 06:18:19;;;;;;;4.25;1.70;;;;;;;6.27;72.77;96354.00;5008624;28;20524;-77
2024/02/23 06:20:45;;;;;;;4.50;2.13;;;;;;;6.12;72.69;96322.69;5008152;28;20095;-77
2024/02/23 06:23:10;;;;;;;5.60;1.70;;;;;;;6.28;72.83;96352.91;5041969;28;20405;-77
2024/02/23 06:25:35;;;;;;;5.03;2.15;;;;;;;6.23;73.05;96344.91;5032151;28;20512;-77
2024/02/23 06:28:01;;;;;;;2.80;1.42;;;;;;;6.30;73.52;96360.69;5049069;28;20045;-75
2024/02/23 06:30:26;;;;;;;4.55;1.55;;;;;;;6.19;74.58;96362.50;5059543;28;20035;-76
2024/02/23 06:32:52;;;;;;;3.72;1.40;;;;;;;6.17;73.50;96368.13;5043502;28;20026;-76
2024/02/23 06:35:17;;;;;;;5.18;1.88;;;;;;;6.34;74.17;96383.97;5034360;28;20386;-76
2024/02/23 06:37:42;;;;;;;4.40;1.52;;;;;;;6.21;73.65;96352.38;5034412;28;20040;-76
2024/02/23 06:40:08;;;;;;;5.22;1.80;;;;;;;6.32;73.41;96379.94;5033671;28;20095;-76
2024/02/23 06:42:33;;;;;;;2.38;1.70;;;;;;;6.31;73.95;96375.66;5014561;28;20059;-78
2024/02/23 06:44:59;;;;;;;4.68;2.00;;;;;;;6.31;74.00;96379.13;5019047;28;20037;-76
2024/02/23 06:47:24;;;;;;;2.70;1.38;;;;;;;6.20;73.28;96391.66;5017693;28;20112;-76
2024/02/23 06:49:50;;;;;;;3.90;1.70;;;;;;;6.35;74.26;96406.94;5020497;28;20044;-76
2024/02/23 06:52:15;;;;;;;3.13;1.38;;;;;;;6.35;73.83;96433.69;5060389;28;20405;-76
2024/02/23 06:54:41;;;;;;;2.47;1.30;;;;;;;6.32;74.07;96431.56;5030746;28;20034;-76
2024/02/23 06:57:07;;;;;;;5.07;1.67;;;;;;;6.35;74.19;96433.69;5034732;28;20021;-77
2024/02/23 06:59:33;;;;;;;3.47;1.67;;;;;;;6.42;73.55;96423.56;5033306;28;20037;-77
2024/02/23 07:01:58;;;;;;;2.90;1.38;;;;;;;6.39;73.98;96432.13;5017041;28;20028;-77
2024/02/23 07:04:23;;;;;;;6.90;4.50;;;;;;;6.43;74.82;96425.16;5049769;28;20044;-77
2024/02/23 07:06:49;;;;;;;4.70;3.40;;;;;;;6.51;73.91;96421.97;5032945;28;20108;-77
2024/02/23 07:09:14;;;;;;;5.15;3.90;;;;;;;6.36;75.37;96408.56;5032918;28;20139;-77
2024/02/23 07:11:41;;;;;;;3.70;2.50;;;;;;;6.57;74.79;96453.03;5041403;28;20029;-77
2024/02/23 07:14:09;;;;;;;6.63;3.60;;;;;;;6.39;74.48;96429.44;5013993;28;20033;-76
2024/02/23 07:16:38;;;;;;;15.68;11.93;;;;;;;6.28;74.72;96455.31;5046974;28;20056;-76
2024/02/23 07:19:03;;;;;;;10.80;7.22;;;;;;;6.50;74.26;96459.69;5038491;28;20038;-76
2024/02/23 07:21:28;;;;;;;7.22;5.28;;;;;;;6.43;74.83;96449.22;5012744;28;20057;-76
2024/02/23 07:23:54;;;;;;;4.63;1.85;;;;;;;6.38;74.83;96454.56;5049278;28;20033;-76
2024/02/23 07:26:22;;;;;;;4.03;2.55;;;;;;;6.29;74.82;96437.41;5055304;28;20026;-76
2024/02/23 07:28:48;;;;;;;25.05;19.17;;;;;;;6.24;74.76;96432.03;5046825;28;20068;-76
2024/02/23 07:31:14;;;;;;;80.32;56.78;;;;;;;6.39;74.81;96445.47;5031032;28;20023;-77
2024/02/23 07:33:39;;;;;;;20.05;14.43;;;;;;;6.31;74.63;96429.13;5043801;28;20404;-77
2024/02/23 07:36:05;;;;;;;3.25;2.65;;;;;;;6.35;74.62;96439.03;5009759;28;20569;-77
2024/02/23 07:38:30;;;;;;;4.07;2.45;;;;;;;5.99;74.41;96360.56;5032117;28;20040;-77
2024/02/23 07:40:55;;;;;;;2.90;2.20;;;;;;;6.52;75.25;96439.66;5032433;28;20050;-77
2024/02/23 07:43:21;;;;;;;4.45;2.25;;;;;;;6.59;75.34;96434.84;5010442;28;20036;-77
2024/02/23 07:45:46;;;;;;;3.08;2.58;;;;;;;6.52;75.80;96434.28;5013975;28;20164;-76
2024/02/23 07:48:11;;;;;;;3.72;2.50;;;;;;;6.57;75.57;96428.16;5012310;28;20401;-77
2024/02/23 07:50:37;;;;;;;2.92;2.08;;;;;;;6.55;75.78;96409.72;5041361;28;20171;-77
2024/02/23 07:53:04;;;;;;;4.50;2.00;;;;;;;6.70;75.38;96447.19;5032364;28;20033;-77
2024/02/23 07:55:29;;;;;;;6.28;2.28;;;;;;;6.57;75.00;96431.66;5023796;28;20032;-77
2024/02/23 07:58:00;;;;;;;4.55;2.17;;;;;;;6.47;75.65;96410.22;5004758;28;20404;-77
2024/02/23 08:00:26;;;;;;;5.22;3.28;;;;;;;6.71;75.27;96435.44;5032212;28;20037;-77
2024/02/23 08:02:51;;;;;;;4.75;2.33;;;;;;;6.77;75.66;96458.44;5025056;28;20028;-77
2024/02/23 08:05:17;;;;;;;4.78;2.90;;;;;;;6.63;74.49;96435.94;5040500;28;20038;-77
2024/02/23 08:07:42;;;;;;;4.93;3.45;;;;;;;6.76;75.13;96470.25;5023488;28;20105;-77
2024/02/23 08:10:09;;;;;;;5.50;4.90;;;;;;;6.96;75.97;96510.44;5023368;28;20048;-77
2024/02/23 08:12:34;;;;;;;4.78;4.28;;;;;;;6.84;74.95;96474.25;5031775;28;20079;-77
2024/02/23 08:15:00;;;;;;;4.75;2.92;;;;;;;7.09;76.23;96500.31;5016398;28;20045;-77
2024/02/23 08:17:25;;;;;;;2.80;1.70;;;;;;;7.04;76.02;96473.53;5015115;28;20025;-77
2024/02/23 08:19:51;;;;;;;2.90;1.73;;;;;;;7.08;75.61;96479.94;5049328;28;20547;-75
2024/02/23 08:22:16;;;;;;;2.95;1.50;;;;;;;7.12;75.84;96489.06;5033214;28;20048;-77
2024/02/23 08:24:42;;;;;;;3.60;1.50;;;;;;;7.09;75.51;96471.66;5034590;28;20482;-76
2024/02/23 08:27:07;;;;;;;4.85;1.50;;;;;;;7.10;75.58;96477.81;5033210;28;20017;-76
2024/02/23 08:29:32;;;;;;;4.43;2.10;;;;;;;7.13;75.04;96479.97;5024548;28;20048;-76
2024/02/23 08:31:58;;;;;;;3.63;1.55;;;;;;;7.18;75.83;96488.00;5022335;28;20087;-77
2024/02/23 08:34:24;;;;;;;6.57;3.95;;;;;;;7.18;75.11;96490.69;5041036;28;20499;-76
2024/02/23 08:36:50;;;;;;;6.32;5.07;;;;;;;7.21;74.91;96479.44;5023732;28;20025;-76
2024/02/23 08:39:15;;;;;;;4.43;2.45;;;;;;;7.11;74.76;96452.66;5022782;28;20477;-77
2024/02/23 08:41:42;;;;;;;5.07;2.30;;;;;;;7.31;75.79;96474.09;5032464;28;20060;-77
2024/02/23 08:44:08;;;;;;;3.20;2.30;;;;;;;7.26;75.11;96461.50;5031672;28;20073;-77
2024/02/23 08:46:34;;;;;;;6.20;1.98;;;;;;;7.45;75.12;96485.91;5030078;28;20056;-77
2024/02/23 08:48:59;;;;;;;4.18;2.20;;;;;;;7.21;75.76;96455.34;5014171;28;20034;-76
2024/02/23 08:51:24;;;;;;;2.78;1.90;;;;;;;7.29;76.17;96460.97;5013490;28;20025;-76
2024/02/23 08:53:50;;;;;;;4.38;2.03;;;;;;;7.42;75.67;96473.06;5018446;28;20477;-75
2024/02/23 08:56:16;;;;;;;3.17;1.90;;;;;;;7.44;75.43;96468.25;5031006;28;20057;-76
2024/02/23 08:58:41;;;;;;;6.15;2.40;;;;;;;7.45;74.75;96469.81;5013956;28;20108;-76
2024/02/23 09:01:06;;;;;;;4.50;2.22;;;;;;;7.44;75.38;96458.34;5010965;28;20496;-76
2024/02/23 09:03:32;;;;;;;7.72;2.25;;;;;;;7.36;75.39;96466.06;5014359;28;20523;-76
2024/02/23 09:05:57;;;;;;;6.30;2.88;;;;;;;7.56;75.07;96476.81;5037667;28;20033;-77
2024/02/23 09:08:23;;;;;;;5.03;2.40;;;;;;;7.60;74.20;96477.88;5022283;28;20038;-76
2024/02/23 09:10:48;;;;;;;6.32;4.82;;;;;;;7.53;73.81;96472.00;5007664;28;20061;-77
2024/02/23 09:13:15;;;;;;;6.28;4.72;;;;;;;7.38;74.54;96461.25;5022448;28;20049;-75
2024/02/23 09:15:42;;;;;;;4.60;1.90;;;;;;;7.43;73.44;96482.69;5030584;28;20075;-75
2024/02/23 09:18:07;;;;;;;6.82;3.10;;;;;;;7.52;73.36;96497.16;5022229;28;20405;-76
2024/02/23 09:20:32;;;;;;;4.05;2.40;;;;;;;7.49;73.20;96487.00;5013999;28;20029;-75
2024/02/23 09:22:58;;;;;;;5.78;2.13;;;;;;;7.46;72.24;96488.34;5014115;28;20102;-76
2024/02/23 09:25:24;;;;;;;6.05;2.00;;;;;;;7.44;72.27;96505.72;5008042;28;20025;-75
2024/02/23 09:27:49;;;;;;;4.40;2.50;;;;;;;7.47;72.92;96484.56;5031449;28;20033;-75
2024/02/23 09:30:14;;;;;;;5.82;2.45;;;;;;;7.51;72.61;96484.84;5031225;28;20026;-77
2024/02/23 09:32:41;;;;;;;5.43;2.15;;;;;;;7.54;70.50;96489.66;5014272;28;20037;-75
2024/02/23 09:35:07;;;;;;;3.25;1.90;;;;;;;7.36;69.76;96479.47;5031140;28;20409;-76
2024/02/23 09:37:32;;;;;;;3.00;1.75;;;;;;;7.38;70.33;96496.88;5046750;28;20041;-75
2024/02/23 09:39:58;;;;;;;3.40;1.73;;;;;;;7.14;68.86;96505.66;5013928;28;20031;-76
2024/02/23 09:42:26;;;;;;;2.55;1.55;;;;;;;7.17;69.26;96489.88;5030406;28;20572;-76
2024/02/23 09:44:59;;;;;;;3.72;1.65;;;;;;;7.16;69.93;96501.66;5014166;28;20027;-76
2024/02/23 09:47:27;;;;;;;3.75;1.95;;;;;;;7.36;68.99;96503.56;5010672;28;20080;-77
2024/02/23 09:49:52;;;;;;;6.88;2.30;;;;;;;7.15;68.80;96456.41;5045285;28;20052;-76
2024/02/23 09:52:18;;;;;;;7.50;2.17;;;;;;;7.31;68.56;96474.09;5046865;28;20456;-76
2024/02/23 09:54:44;;;;;;;4.85;1.70;;;;;;;7.01;68.24;96447.28;5011427;28;20080;-76
2024/02/23 09:57:10;;;;;;;4.50;1.60;;;;;;;7.29;68.41;96484.28;5029407;28;20068;-77
2024/02/23 09:59:36;;;;;;;3.03;1.80;;;;;;;7.61;67.78;96512.44;5033891;28;20022;-75
2024/02/23 10:02:11;;;;;;;4.68;1.90;;;;;;;7.47;68.25;96499.81;5017749;28;20048;-75
2024/02/23 10:04:39;;;;;;;5.45;1.92;;;;;;;7.47;68.64;96521.25;5034132;28;20033;-76
2024/02/23 10:07:05;;;;;;;4.50;2.28;;;;;;;7.55;68.37;96507.34;5025873;28;20071;-76
2024/02/23 10:09:30;;;;;;;3.50;1.73;;;;;;;7.71;67.34;96517.00;5013947;28;20029;-76
2024/02/23 10:11:56;;;;;;;3.95;1.75;;;;;;;7.55;67.00;96507.34;5017532;28;20038;-76
2024/02/23 10:14:21;;;;;;;5.38;1.98;;;;;;;7.66;66.16;96514.31;5050412;28;20409;-76
2024/02/23 10:16:48;;;;;;;5.90;2.03;;;;;;;7.85;67.00;96534.16;5050430;28;20037;-76
2024/02/23 10:19:13;;;;;;;3.80;1.60;;;;;;;7.76;66.25;96530.41;5044825;28;20034;-76
2024/02/23 10:21:39;;;;;;;4.78;1.50;;;;;;;7.58;66.00;96525.56;5039800;28;20032;-76
2024/02/23 10:24:07;;;;;;;3.70;1.52;;;;;;;7.75;65.71;96528.78;5030661;28;20037;-76
2024/02/23 10:26:33;;;;;;;6.70;1.73;;;;;;;7.75;64.14;96544.84;5025231;28;20037;-76
2024/02/23 10:28:58;;;;;;;4.55;1.52;;;;;;;7.58;65.07;96533.59;5033312;28;20037;-76
2024/02/23 10:31:24;;;;;;;3.13;1.50;;;;;;;7.61;64.74;96549.13;5017085;28;20045;-76
2024/02/23 10:33:52;;;;;;;4.47;1.52;;;;;;;7.74;65.24;96540.59;5020466;28;20038;-76
2024/02/23 10:36:18;;;;;;;5.63;1.60;;;;;;;7.74;65.14;96537.91;5017294;28;20512;-76
2024/02/23 10:38:45;;;;;;;4.65;1.50;;;;;;;7.78;64.99;96536.28;5049718;28;20044;-76
2024/02/23 10:41:13;;;;;;;4.43;1.60;;;;;;;7.82;64.21;96529.31;5033270;28;20026;-76
2024/02/23 10:43:47;;;;;;;5.78;1.75;;;;;;;7.93;65.37;96547.03;5033296;28;20098;-76
2024/02/23 10:46:13;;;;;;;5.45;1.90;;;;;;;7.91;66.15;96538.44;5033156;28;20037;-76
2024/02/23 10:48:40;;;;;;;4.25;1.60;;;;;;;7.95;65.63;96531.50;5032881;28;20087;-76
2024/02/23 10:51:07;;;;;;;5.45;2.20;;;;;;;8.03;64.21;96536.28;5016854;28;20107;-76
2024/02/23 10:53:34;;;;;;;4.50;1.83;;;;;;;8.01;63.83;96538.44;5013332;28;20619;-76
2024/02/23 10:56:00;;;;;;;4.00;1.55;;;;;;;8.13;64.66;96556.94;5009992;28;20033;-75
2024/02/23 10:58:28;;;;;;;3.28;1.60;;;;;;;8.16;64.40;96535.78;5016208;28;20401;-75
2024/02/23 11:01:01;;;;;;;4.80;1.70;;;;;;;7.83;64.46;96512.19;5008230;28;20091;-76
2024/02/23 11:03:28;;;;;;;5.07;1.80;;;;;;;8.08;63.94;96543.53;5028789;28;20083;-76
2024/02/23 11:05:54;;;;;;;5.53;1.67;;;;;;;8.02;63.24;96518.63;5032975;28;20112;-75
2024/02/23 11:08:19;;;;;;;3.55;1.50;;;;;;;7.96;63.24;96533.06;5031775;28;20113;-76
2024/02/23 11:10:54;;;;;;;5.20;1.77;;;;;;;8.07;63.27;96531.22;5023189;28;20120;-76
2024/02/23 11:13:36;;;;;;;4.35;1.77;;;;;;;8.12;63.00;96553.44;5008384;28;20037;-75
2024/02/23 11:16:05;;;;;;;3.00;1.85;;;;;;;8.06;63.48;96535.75;5046067;28;20445;-76
2024/02/23 11:18:32;;;;;;;4.40;1.63;;;;;;;7.96;64.20;96518.91;5013678;28;20057;-76
2024/02/23 11:21:03;;;;;;;6.25;2.08;;;;;;;8.26;63.75;96543.81;5038033;28;20107;-76
2024/02/23 11:23:51;;;;;;;5.53;2.30;;;;;;;8.19;62.84;96540.56;5020105;28;20046;-76
2024/02/23 11:26:16;;;;;;;3.53;2.70;;;;;;;8.14;63.55;96527.19;5021121;28;20033;-76
2024/02/23 11:28:49;;;;;;;6.00;2.33;;;;;;;8.38;63.11;96543.53;5039216;28;20395;-76
2024/02/23 11:31:19;;;;;;;5.53;1.95;;;;;;;8.34;63.29;96527.19;5033270;28;20034;-76
2024/02/23 11:33:52;;;;;;;3.30;1.73;;;;;;;8.22;63.34;96507.88;5021521;28;20129;-75
2024/02/23 11:36:33;;;;;;;3.67;1.80;;;;;;;8.44;62.46;96547.84;5015826;28;20079;-75
2024/02/23 11:39:00;;;;;;;3.75;1.90;;;;;;;8.48;62.88;96531.97;5021415;28;20041;-75